Time;durP1;ratioP1;P1;durP2;ratioP2;P2;SDS_P1;SDS_P2;PMS_P1;PMS_P2;Temp;Humidity;BMP_temperature;BMP_pressure;BME280_temperature;BME280_humidity;BME280_pressure;Samples;Min_cycle;Max_cycle;Signal;HPM_P1;HPM_P2
2024/01/13 00:02:05;;;;;;;2.63;1.47;;;-2.70;99.90;;;;;;5098650;28;21000;-79
2024/01/13 00:04:33;;;;;;;4.93;2.50;;;-2.70;99.90;;;;;;5099560;28;20444;-79
2024/01/13 00:07:00;;;;;;;1.07;1.07;;;-2.80;99.90;;;;;;5099439;28;20504;-79
2024/01/13 00:09:26;;;;;;;4.13;2.07;;;-2.80;99.90;;;;;;5099717;28;20468;-79
2024/01/13 00:11:53;;;;;;;1.50;1.40;;;-2.80;99.90;;;;;;5099454;28;20417;-79
2024/01/13 00:14:20;;;;;;;8.70;3.90;;;-2.70;99.90;;;;;;5099710;28;20438;-79
2024/01/13 00:16:46;;;;;;;3.53;1.97;;;-2.70;99.90;;;;;;5099970;28;20785;-79
2024/01/13 00:19:13;;;;;;;3.27;1.10;;;-2.70;99.90;;;;;;5099742;28;20464;-80
2024/01/13 00:21:41;;;;;;;1.63;1.53;;;-2.60;99.90;;;;;;5101243;28;20417;-80
2024/01/13 00:24:08;;;;;;;0.90;0.87;;;-2.60;99.90;;;;;;5100862;28;20821;-80
2024/01/13 00:26:35;;;;;;;3.47;2.70;;;-2.70;99.90;;;;;;5100469;28;20433;-80
2024/01/13 00:29:01;;;;;;;2.47;1.10;;;-2.70;99.90;;;;;;5099771;28;20438;-80
2024/01/13 00:31:28;;;;;;;3.30;2.83;;;-2.70;99.90;;;;;;5099907;28;20451;-80
2024/01/13 00:33:55;;;;;;;4.87;2.47;;;-2.70;99.90;;;;;;5100333;28;20787;-80
2024/01/13 00:36:21;;;;;;;0.80;0.80;;;-2.70;99.90;;;;;;5099395;28;20443;-80
2024/01/13 00:38:49;;;;;;;1.80;1.13;;;-2.80;99.90;;;;;;5099501;28;20441;-80
2024/01/13 00:41:16;;;;;;;2.70;2.10;;;-2.70;99.90;;;;;;5099028;28;20423;-80
2024/01/13 00:43:43;;;;;;;5.10;2.37;;;-2.70;99.90;;;;;;5099326;28;20477;-80
2024/01/13 00:46:09;;;;;;;3.33;3.07;;;-2.70;99.90;;;;;;5099220;28;20455;-80
2024/01/13 00:48:36;;;;;;;2.93;2.73;;;-2.70;99.90;;;;;;5099178;28;20450;-80
2024/01/13 00:51:03;;;;;;;1.53;1.37;;;-2.60;99.90;;;;;;5099041;28;20511;-80
2024/01/13 00:53:30;;;;;;;1.03;1.03;;;-2.60;99.90;;;;;;5099414;28;20441;-80
2024/01/13 00:55:58;;;;;;;7.10;2.30;;;-2.50;99.90;;;;;;5098928;28;20448;-80
2024/01/13 00:58:25;;;;;;;11.07;4.00;;;-2.50;99.90;;;;;;5098598;28;20438;-80
2024/01/13 01:00:52;;;;;;;1.90;1.33;;;-2.50;99.90;;;;;;5098646;28;20440;-80
2024/01/13 01:03:19;;;;;;;6.27;1.97;;;-2.50;99.90;;;;;;5098588;28;20461;-80
2024/01/13 01:05:46;;;;;;;9.03;1.17;;;-2.50;99.90;;;;;;5098666;28;20455;-80
2024/01/13 01:08:12;;;;;;;3.80;1.33;;;-2.50;99.90;;;;;;5098118;28;20461;-80
2024/01/13 01:10:39;;;;;;;5.23;2.03;;;-2.50;99.90;;;;;;5098525;28;21053;-80
2024/01/13 01:13:07;;;;;;;1.60;1.50;;;-2.50;99.90;;;;;;5098460;28;20414;-80
2024/01/13 01:15:34;;;;;;;2.67;1.90;;;-2.50;99.90;;;;;;5098452;28;20811;-80
2024/01/13 01:18:01;;;;;;;2.07;1.87;;;-2.50;99.90;;;;;;5098225;28;20467;-80
2024/01/13 01:20:28;;;;;;;3.77;1.33;;;-2.50;99.90;;;;;;5098522;28;20410;-79
2024/01/13 01:22:54;;;;;;;2.20;1.83;;;-2.50;99.90;;;;;;5098384;28;20480;-80
2024/01/13 01:25:21;;;;;;;3.00;1.60;;;-2.50;99.90;;;;;;5098246;28;20444;-80
2024/01/13 01:27:48;;;;;;;18.07;2.53;;;-2.50;99.90;;;;;;5098114;28;20505;-80
2024/01/13 01:30:16;;;;;;;12.83;3.43;;;-2.50;99.90;;;;;;5098448;28;20439;-80
2024/01/13 01:32:43;;;;;;;1.07;1.07;;;-2.50;99.90;;;;;;5097592;28;20418;-80
2024/01/13 01:35:09;;;;;;;3.57;2.70;;;-2.50;99.90;;;;;;5098317;28;20535;-80
2024/01/13 01:37:36;;;;;;;9.97;3.77;;;-2.50;99.90;;;;;;5103257;28;20449;-79
2024/01/13 01:40:04;;;;;;;3.77;2.20;;;-2.50;99.90;;;;;;5101332;28;20426;-79
2024/01/13 01:42:31;;;;;;;12.70;2.97;;;-2.50;99.90;;;;;;5095568;28;20466;-79
2024/01/13 01:44:57;;;;;;;5.63;2.73;;;-2.50;99.90;;;;;;5095602;28;20460;-79
2024/01/13 01:47:28;;;;;;;3.43;2.33;;;-2.50;99.90;;;;;;5095633;28;20426;-79
2024/01/13 01:49:54;;;;;;;0.63;0.63;;;-2.50;99.90;;;;;;5094833;28;20471;-79
2024/01/13 01:52:21;;;;;;;2.27;1.60;;;-2.50;99.90;;;;;;5095076;28;20444;-79
2024/01/13 01:54:48;;;;;;;1.50;1.40;;;-2.50;99.90;;;;;;5094936;28;20419;-79
2024/01/13 01:57:16;;;;;;;2.63;2.43;;;-2.50;99.90;;;;;;5094701;28;21050;-79
2024/01/13 01:59:43;;;;;;;2.83;2.70;;;-2.50;99.90;;;;;;5094818;28;20490;-79
2024/01/13 02:02:11;;;;;;;4.53;2.43;;;-2.50;99.90;;;;;;5094699;28;20455;-79
2024/01/13 02:04:39;;;;;;;14.50;2.30;;;-2.60;99.90;;;;;;5094468;28;20418;-79
2024/01/13 02:07:07;;;;;;;2.10;1.40;;;-2.60;99.90;;;;;;5094423;28;20519;-79
2024/01/13 02:09:34;;;;;;;4.73;1.30;;;-2.50;99.90;;;;;;5095185;28;20446;-80
2024/01/13 02:12:01;;;;;;;2.87;2.10;;;-2.60;99.90;;;;;;5094999;28;20779;-79
2024/01/13 02:14:28;;;;;;;13.93;2.80;;;-2.60;99.90;;;;;;5095150;28;20440;-79
2024/01/13 02:16:56;;;;;;;4.93;2.50;;;-2.60;99.90;;;;;;5094969;28;20495;-79
2024/01/13 02:19:22;;;;;;;2.73;2.53;;;-2.60;99.90;;;;;;5094474;28;20438;-79
2024/01/13 02:21:50;;;;;;;2.30;2.20;;;-2.70;99.90;;;;;;5094765;28;20441;-79
2024/01/13 02:24:17;;;;;;;2.00;1.90;;;-2.70;99.90;;;;;;5094617;28;20483;-79
2024/01/13 02:26:44;;;;;;;4.73;1.67;;;-2.70;99.90;;;;;;5099020;28;20436;-80
2024/01/13 02:29:10;;;;;;;8.83;2.90;;;-2.70;99.90;;;;;;5098007;28;20448;-80
2024/01/13 02:31:37;;;;;;;3.30;2.00;;;-2.70;99.90;;;;;;5098595;28;20426;-80
2024/01/13 02:34:04;;;;;;;44.63;2.43;;;-2.80;99.90;;;;;;5098603;28;20424;-80
2024/01/13 02:36:31;;;;;;;2.57;1.73;;;-2.80;99.90;;;;;;5098977;28;20452;-80
2024/01/13 02:38:59;;;;;;;9.17;3.87;;;-2.90;99.90;;;;;;5098592;28;20442;-80
2024/01/13 02:41:25;;;;;;;2.97;2.63;;;-2.80;99.90;;;;;;5098062;28;20440;-80
2024/01/13 02:43:52;;;;;;;4.50;3.67;;;-2.90;99.90;;;;;;5097628;28;20471;-80
2024/01/13 02:46:19;;;;;;;4.07;3.63;;;-2.90;99.90;;;;;;5098317;28;20451;-80
2024/01/13 02:48:48;;;;;;;4.83;1.87;;;-2.80;99.90;;;;;;5097460;28;20832;-80
2024/01/13 02:51:17;;;;;;;1.63;1.07;;;-2.80;99.90;;;;;;5096045;28;20944;-80
2024/01/13 02:53:43;;;;;;;1.83;1.13;;;-2.80;99.90;;;;;;5096817;28;20419;-80
2024/01/13 02:56:12;;;;;;;1.03;0.80;;;-2.80;99.90;;;;;;5096773;28;20448;-79
2024/01/13 02:58:38;;;;;;;4.70;2.17;;;-2.80;99.90;;;;;;5113695;28;20468;-79
2024/01/13 03:01:06;;;;;;;10.83;3.80;;;-2.80;99.90;;;;;;5114319;28;20452;-79
2024/01/13 03:03:34;;;;;;;1.80;1.70;;;-2.90;99.90;;;;;;5114604;28;20483;-79
2024/01/13 03:06:01;;;;;;;5.80;2.93;;;-2.90;99.90;;;;;;5114314;28;20415;-79
2024/01/13 03:08:27;;;;;;;2.40;2.30;;;-2.90;99.90;;;;;;5114824;28;20471;-79
2024/01/13 03:10:54;;;;;;;2.77;2.57;;;-2.90;99.90;;;;;;5109030;28;20440;-80
2024/01/13 03:13:22;;;;;;;1.23;1.13;;;-3.00;99.90;;;;;;5100841;28;20444;-80
2024/01/13 03:15:49;;;;;;;1.10;1.10;;;-2.90;99.90;;;;;;5099339;28;20464;-80
2024/01/13 03:18:16;;;;;;;5.03;2.03;;;-2.90;99.90;;;;;;5097414;28;20439;-80
2024/01/13 03:20:43;;;;;;;0.87;0.80;;;-2.90;99.90;;;;;;5099136;28;20496;-80
2024/01/13 03:23:09;;;;;;;2.63;2.40;;;-2.80;99.90;;;;;;5098302;28;20476;-80
2024/01/13 03:25:36;;;;;;;3.43;2.47;;;-2.90;99.90;;;;;;5098284;28;20938;-80
2024/01/13 03:28:03;;;;;;;0.97;0.90;;;-2.80;99.90;;;;;;5098961;28;20471;-80
2024/01/13 03:30:31;;;;;;;2.97;1.27;;;-2.70;99.90;;;;;;5097353;28;20447;-80
2024/01/13 03:32:58;;;;;;;1.87;1.63;;;-2.70;99.90;;;;;;5097650;28;20448;-80
2024/01/13 03:35:24;;;;;;;5.00;2.40;;;-2.80;99.90;;;;;;5097475;28;20440;-79
2024/01/13 03:37:51;;;;;;;2.83;2.50;;;-2.80;99.90;;;;;;5097291;28;20466;-80
2024/01/13 03:40:18;;;;;;;0.57;0.57;;;-2.80;99.90;;;;;;5098199;28;20436;-80
2024/01/13 03:42:45;;;;;;;1.27;0.90;;;-2.80;99.90;;;;;;5096746;28;20964;-80
2024/01/13 03:45:12;;;;;;;1.57;1.47;;;-2.80;99.90;;;;;;5096859;28;20452;-80
2024/01/13 03:47:40;;;;;;;20.53;3.47;;;-2.80;99.90;;;;;;5096919;28;20432;-80
2024/01/13 03:50:08;;;;;;;5.80;3.80;;;-2.80;99.90;;;;;;5096913;28;20422;-79
2024/01/13 03:52:35;;;;;;;7.63;3.10;;;-2.80;99.90;;;;;;5097279;28;20462;-80
2024/01/13 03:55:02;;;;;;;3.80;3.50;;;-2.80;99.90;;;;;;5096304;28;20941;-80
2024/01/13 03:57:28;;;;;;;8.93;2.67;;;-2.70;99.90;;;;;;5096681;28;20447;-80
2024/01/13 03:59:55;;;;;;;3.77;1.17;;;-2.80;99.90;;;;;;5103759;28;20460;-79
2024/01/13 04:02:22;;;;;;;2.50;0.90;;;-2.80;99.90;;;;;;5099280;28;20448;-79
2024/01/13 04:04:50;;;;;;;3.17;1.93;;;-2.80;99.90;;;;;;5097320;28;20901;-79
2024/01/13 04:07:17;;;;;;;7.73;3.70;;;-2.80;99.90;;;;;;5097108;28;20484;-79
2024/01/13 04:09:44;;;;;;;0.37;0.37;;;-2.70;99.90;;;;;;5097371;28;20517;-79
2024/01/13 04:12:11;;;;;;;9.03;3.53;;;-2.70;99.90;;;;;;5097966;28;20451;-79
2024/01/13 04:14:37;;;;;;;7.63;2.83;;;-2.70;99.90;;;;;;5097583;28;20444;-79
2024/01/13 04:17:05;;;;;;;7.63;2.60;;;-2.70;99.90;;;;;;5097206;28;20451;-79
2024/01/13 04:19:31;;;;;;;4.87;3.53;;;-2.80;99.90;;;;;;5097391;28;20459;-79
2024/01/13 04:22:00;;;;;;;7.83;3.60;;;-2.80;99.90;;;;;;5097307;28;20415;-80
2024/01/13 04:24:26;;;;;;;2.30;1.47;;;-2.80;99.90;;;;;;5097376;28;20484;-79
2024/01/13 04:26:53;;;;;;;4.20;1.53;;;-2.90;99.90;;;;;;5097483;28;20444;-80
2024/01/13 04:29:20;;;;;;;4.33;1.73;;;-2.90;99.90;;;;;;5098900;28;20437;-80
2024/01/13 04:31:46;;;;;;;1.00;1.00;;;-2.80;99.90;;;;;;5101708;28;20444;-80
2024/01/13 04:34:13;;;;;;;3.53;2.67;;;-2.80;99.90;;;;;;5101094;28;20444;-80
2024/01/13 04:36:40;;;;;;;3.90;1.57;;;-2.80;99.90;;;;;;5100617;28;20432;-80
2024/01/13 04:39:08;;;;;;;1.73;1.63;;;-2.80;99.90;;;;;;5100354;28;20462;-80
2024/01/13 04:41:40;;;;;;;1.80;1.70;;;-2.80;99.90;;;;;;5100406;28;20448;-80
2024/01/13 04:44:08;;;;;;;1.60;1.60;;;-2.80;99.90;;;;;;5100363;28;20488;-80
2024/01/13 04:46:34;;;;;;;3.90;2.00;;;-2.70;99.90;;;;;;5100251;28;20419;-80
2024/01/13 04:49:01;;;;;;;0.80;0.80;;;-2.80;99.90;;;;;;5099135;28;20483;-80
2024/01/13 04:51:28;;;;;;;1.20;1.17;;;-2.90;99.90;;;;;;5099824;28;20444;-80
2024/01/13 04:53:55;;;;;;;2.10;2.00;;;-2.90;99.90;;;;;;5099593;28;20440;-80
2024/01/13 04:56:23;;;;;;;1.60;1.37;;;-2.90;99.90;;;;;;5099644;28;20531;-80
2024/01/13 04:58:50;;;;;;;3.27;2.10;;;-2.90;99.90;;;;;;5098881;28;20973;-79
2024/01/13 05:01:17;;;;;;;1.00;1.00;;;-3.00;99.90;;;;;;5099239;28;20448;-79
2024/01/13 05:03:44;;;;;;;5.07;1.23;;;-3.10;99.90;;;;;;5098841;28;20491;-80
2024/01/13 05:06:11;;;;;;;1.13;0.87;;;-3.10;99.90;;;;;;5098966;28;20439;-80
2024/01/13 05:08:37;;;;;;;1.03;1.03;;;-3.10;99.90;;;;;;5098700;28;20483;-80
2024/01/13 05:11:04;;;;;;;4.17;2.40;;;-3.10;99.90;;;;;;5098792;28;20422;-80
2024/01/13 05:13:32;;;;;;;2.77;2.57;;;-3.20;99.90;;;;;;5098546;28;20440;-80
2024/01/13 05:15:59;;;;;;;1.27;1.27;;;-3.20;99.90;;;;;;5098001;28;20451;-80
2024/01/13 05:18:26;;;;;;;1.17;1.03;;;-3.20;99.90;;;;;;5098130;28;20439;-80
2024/01/13 05:20:53;;;;;;;3.63;1.33;;;-3.10;99.90;;;;;;5098686;28;20456;-80
2024/01/13 05:23:19;;;;;;;0.83;0.83;;;-3.10;99.90;;;;;;5097947;28;20447;-80
2024/01/13 05:25:46;;;;;;;17.03;2.77;;;-3.00;99.90;;;;;;5098203;28;20448;-80
2024/01/13 05:28:13;;;;;;;3.43;3.13;;;-3.00;99.90;;;;;;5098573;28;20468;-80
2024/01/13 05:30:41;;;;;;;6.00;2.77;;;-3.00;99.90;;;;;;5098170;28;20789;-80
2024/01/13 05:33:08;;;;;;;2.87;2.40;;;-3.00;99.90;;;;;;5098023;28;20452;-80
2024/01/13 05:35:35;;;;;;;10.03;3.20;;;-3.00;99.90;;;;;;5098071;28;20443;-80
2024/01/13 05:38:02;;;;;;;2.27;1.67;;;-3.00;99.90;;;;;;5098181;28;20464;-80
2024/01/13 05:40:29;;;;;;;5.30;2.57;;;-2.90;99.90;;;;;;5098023;28;20442;-79
2024/01/13 05:42:55;;;;;;;1.10;1.00;;;-2.90;99.90;;;;;;5097750;28;20444;-80
2024/01/13 05:45:22;;;;;;;7.80;2.23;;;-2.90;99.90;;;;;;5097820;28;20864;-80
2024/01/13 05:47:51;;;;;;;2.53;1.43;;;-2.90;99.90;;;;;;5097423;28;20448;-79
2024/01/13 05:50:18;;;;;;;1.60;1.50;;;-2.90;99.90;;;;;;5097594;28;20466;-80
2024/01/13 05:52:44;;;;;;;7.60;4.30;;;-2.90;99.90;;;;;;5097730;28;20937;-80
2024/01/13 05:55:11;;;;;;;3.93;1.83;;;-2.90;99.90;;;;;;5097171;28;20505;-79
2024/01/13 05:57:38;;;;;;;3.70;2.27;;;-2.90;99.90;;;;;;5097898;28;20949;-79
2024/01/13 06:00:06;;;;;;;2.80;1.43;;;-2.90;99.90;;;;;;5097739;28;20439;-80
2024/01/13 06:02:33;;;;;;;2.93;1.60;;;-2.90;99.90;;;;;;5097445;28;20813;-80
2024/01/13 06:05:01;;;;;;;7.73;2.57;;;-2.90;99.90;;;;;;5096903;28;20491;-80
2024/01/13 06:07:27;;;;;;;13.37;2.87;;;-2.90;99.90;;;;;;5097358;28;20476;-80
2024/01/13 06:09:54;;;;;;;1.50;1.40;;;-2.80;99.90;;;;;;5097130;28;20475;-80
2024/01/13 06:12:22;;;;;;;0.87;0.87;;;-2.80;99.90;;;;;;5097518;28;20447;-80
2024/01/13 06:14:49;;;;;;;2.60;2.40;;;-2.80;99.90;;;;;;5097278;28;20430;-80
2024/01/13 06:17:16;;;;;;;1.03;0.70;;;-2.80;99.90;;;;;;5096993;28;20439;-79
2024/01/13 06:19:43;;;;;;;2.00;1.90;;;-2.80;99.90;;;;;;5096711;28;20468;-80
2024/01/13 06:22:11;;;;;;;5.50;1.23;;;-2.90;99.90;;;;;;5106583;28;20520;-79
2024/01/13 06:24:38;;;;;;;5.90;1.90;;;-2.90;99.90;;;;;;5098276;28;20967;-79
2024/01/13 06:27:04;;;;;;;1.03;0.90;;;-2.90;99.90;;;;;;5094657;28;20455;-79
2024/01/13 06:29:31;;;;;;;5.87;1.63;;;-2.90;99.90;;;;;;5094560;28;20448;-80
2024/01/13 06:31:57;;;;;;;7.23;2.43;;;-2.90;99.90;;;;;;5095041;28;20591;-80
2024/01/13 06:34:24;;;;;;;1.93;1.83;;;-2.90;99.90;;;;;;5097550;28;20443;-80
2024/01/13 06:36:51;;;;;;;2.27;2.13;;;-2.90;99.90;;;;;;5097833;28;20440;-80
2024/01/13 06:39:20;;;;;;;2.73;1.33;;;-2.90;99.90;;;;;;5097599;28;20435;-80
2024/01/13 06:41:46;;;;;;;1.93;1.80;;;-2.90;99.90;;;;;;5097610;28;20455;-80
2024/01/13 06:44:13;;;;;;;1.27;0.80;;;-2.80;99.90;;;;;;5097705;28;20531;-80
2024/01/13 06:46:40;;;;;;;14.23;2.70;;;-2.90;99.90;;;;;;5098062;28;20451;-80
2024/01/13 06:49:06;;;;;;;5.90;1.50;;;-2.90;99.90;;;;;;5097434;28;20959;-80
2024/01/13 06:51:33;;;;;;;2.93;1.63;;;-2.80;99.90;;;;;;5097559;28;20444;-80
2024/01/13 06:54:00;;;;;;;4.67;2.10;;;-2.90;99.90;;;;;;5097030;28;20912;-80
2024/01/13 06:56:28;;;;;;;2.90;1.20;;;-3.00;99.90;;;;;;5097327;28;20444;-80
2024/01/13 06:58:55;;;;;;;2.97;2.70;;;-3.10;99.90;;;;;;5096976;28;20862;-80
2024/01/13 07:01:21;;;;;;;1.10;0.93;;;-3.00;99.90;;;;;;5097017;28;20425;-80
2024/01/13 07:03:48;;;;;;;4.17;1.50;;;-2.90;99.90;;;;;;5102628;28;20455;-80
2024/01/13 07:06:15;;;;;;;2.10;1.40;;;-3.00;99.90;;;;;;5101665;28;20451;-80
2024/01/13 07:08:43;;;;;;;13.63;2.87;;;-2.90;99.90;;;;;;5098618;28;20450;-80
2024/01/13 07:11:13;;;;;;;7.60;2.87;;;-2.90;99.90;;;;;;5096259;28;20983;-80
2024/01/13 07:13:43;;;;;;;20.53;3.10;;;-3.00;99.90;;;;;;5096759;28;20440;-80
2024/01/13 07:16:10;;;;;;;1.77;1.67;;;-3.00;99.90;;;;;;5097379;28;20769;-80
2024/01/13 07:18:37;;;;;;;5.90;2.40;;;-3.00;99.90;;;;;;5096453;28;20490;-80
2024/01/13 07:21:04;;;;;;;7.57;2.83;;;-3.00;99.90;;;;;;5096782;28;20450;-80
2024/01/13 07:23:31;;;;;;;17.53;2.43;;;-3.20;99.90;;;;;;5096681;28;20447;-80
2024/01/13 07:25:58;;;;;;;1.77;1.63;;;-3.10;99.90;;;;;;5096513;28;20461;-80
2024/01/13 07:28:25;;;;;;;12.90;2.57;;;-3.20;99.90;;;;;;5096294;28;20453;-80
2024/01/13 07:30:53;;;;;;;0.50;0.50;;;-3.20;99.90;;;;;;5096815;28;20447;-80
2024/01/13 07:33:20;;;;;;;11.47;2.90;;;-3.30;99.90;;;;;;5096064;28;20451;-80
2024/01/13 07:35:47;;;;;;;1.47;0.90;;;-3.40;99.90;;;;;;5096335;28;20447;-80
2024/01/13 07:38:13;;;;;;;2.10;1.63;;;-3.40;99.90;;;;;;5097423;28;20464;-80
2024/01/13 07:40:40;;;;;;;11.90;1.73;;;-3.40;99.90;;;;;;5099261;28;20426;-80
2024/01/13 07:43:07;;;;;;;1.97;1.87;;;-3.40;99.90;;;;;;5099593;28;20444;-79
2024/01/13 07:45:34;;;;;;;1.07;0.57;;;-3.40;99.90;;;;;;5099150;28;20502;-79
2024/01/13 07:48:02;;;;;;;1.83;0.63;;;-3.30;99.90;;;;;;5099220;28;20882;-79
2024/01/13 07:50:29;;;;;;;2.90;1.27;;;-3.30;99.90;;;;;;5099106;28;20440;-79
2024/01/13 07:52:56;;;;;;;0.93;0.53;;;-3.30;99.90;;;;;;5099175;28;20803;-79
2024/01/13 07:55:23;;;;;;;4.73;1.80;;;-3.40;99.90;;;;;;5098646;28;20422;-79
2024/01/13 07:57:49;;;;;;;1.00;1.00;;;-3.30;99.90;;;;;;5098906;28;20438;-79
2024/01/13 08:00:17;;;;;;;4.50;1.87;;;-3.30;99.90;;;;;;5098925;28;20836;-79
2024/01/13 08:02:43;;;;;;;0.80;0.80;;;-3.30;99.90;;;;;;5098728;28;20448;-80
2024/01/13 08:05:15;;;;;;;3.67;1.57;;;-3.30;99.90;;;;;;5099067;28;20549;-80
2024/01/13 08:07:41;;;;;;;0.70;0.70;;;-3.20;99.90;;;;;;5099173;28;20461;-80
2024/01/13 08:10:09;;;;;;;0.90;0.90;;;-3.20;99.90;;;;;;5098667;28;20483;-80
2024/01/13 08:12:36;;;;;;;0.77;0.77;;;-3.10;99.90;;;;;;5099081;28;20426;-80
2024/01/13 08:15:05;;;;;;;0.60;0.60;;;-3.00;99.90;;;;;;5098796;28;20419;-79
2024/01/13 08:17:31;;;;;;;1.90;1.40;;;-3.00;99.90;;;;;;5099818;28;20415;-80
2024/01/13 08:19:58;;;;;;;0.53;0.53;;;-3.00;99.90;;;;;;5099405;28;20468;-80
2024/01/13 08:22:26;;;;;;;0.37;0.37;;;-2.90;99.90;;;;;;5099384;28;20448;-80
2024/01/13 08:24:53;;;;;;;2.47;1.10;;;-2.90;99.90;;;;;;5098633;28;20848;-80
2024/01/13 08:27:20;;;;;;;1.57;1.47;;;-2.90;99.90;;;;;;5099896;28;20426;-80
2024/01/13 08:29:47;;;;;;;0.80;0.80;;;-2.80;99.90;;;;;;5100455;28;20460;-80
2024/01/13 08:32:13;;;;;;;2.93;1.50;;;-2.80;99.90;;;;;;5100321;28;20430;-80
2024/01/13 08:34:40;;;;;;;4.00;1.30;;;-2.80;99.90;;;;;;5101498;28;20418;-80
2024/01/13 08:37:07;;;;;;;7.43;1.03;;;-2.70;99.90;;;;;;5101893;28;20414;-80
2024/01/13 08:39:35;;;;;;;4.60;1.47;;;-2.70;99.90;;;;;;5101377;28;20459;-80
2024/01/13 08:42:01;;;;;;;1.23;1.17;;;-2.70;99.90;;;;;;5100806;28;20456;-80
2024/01/13 08:44:28;;;;;;;0.50;0.50;;;-2.60;99.90;;;;;;5101564;28;20440;-80
2024/01/13 08:46:54;;;;;;;2.57;1.00;;;-2.60;99.90;;;;;;5100468;28;20724;-80
2024/01/13 08:49:21;;;;;;;0.70;0.70;;;-2.60;99.90;;;;;;5099240;28;20457;-80
2024/01/13 08:51:48;;;;;;;0.60;0.60;;;-2.50;99.90;;;;;;5100395;28;20505;-80
2024/01/13 08:54:15;;;;;;;0.90;0.90;;;-2.50;99.90;;;;;;5099771;28;20440;-80
2024/01/13 08:56:43;;;;;;;1.07;1.07;;;-2.40;99.90;;;;;;5100488;28;20487;-80
2024/01/13 08:59:10;;;;;;;1.30;1.20;;;-2.40;99.90;;;;;;5099232;28;20885;-80
2024/01/13 09:01:37;;;;;;;3.63;1.60;;;-2.40;99.90;;;;;;5099824;28;20440;-80
2024/01/13 09:04:04;;;;;;;3.33;3.17;;;-2.30;99.90;;;;;;5100039;28;20448;-80
2024/01/13 09:06:30;;;;;;;1.03;1.03;;;-2.20;99.90;;;;;;5099738;28;20511;-80
2024/01/13 09:08:57;;;;;;;1.53;1.50;;;-2.20;99.90;;;;;;5099722;28;20461;-80
2024/01/13 09:11:24;;;;;;;0.50;0.50;;;-2.20;99.90;;;;;;5098726;28;20448;-79
2024/01/13 09:13:52;;;;;;;12.23;2.10;;;-2.30;99.90;;;;;;5098932;28;20448;-79
2024/01/13 09:16:19;;;;;;;3.30;1.03;;;-2.30;99.90;;;;;;5098690;28;20968;-79
2024/01/13 09:18:45;;;;;;;0.63;0.63;;;-2.20;99.90;;;;;;5097583;28;20464;-79
2024/01/13 09:21:13;;;;;;;1.33;1.23;;;-2.20;99.90;;;;;;5097654;28;20414;-79
2024/01/13 09:23:40;;;;;;;3.13;2.10;;;-2.10;99.90;;;;;;5098351;28;20447;-80
2024/01/13 09:26:07;;;;;;;1.37;1.03;;;-2.10;99.90;;;;;;5097203;28;20484;-79
2024/01/13 09:28:33;;;;;;;2.00;0.50;;;-2.10;99.90;;;;;;5097750;28;20450;-79
2024/01/13 09:31:02;;;;;;;0.50;0.50;;;-2.10;99.90;;;;;;5097511;28;20440;-79
2024/01/13 09:33:29;;;;;;;3.30;0.97;;;-2.00;99.90;;;;;;5097584;28;20444;-79
2024/01/13 09:35:55;;;;;;;0.60;0.60;;;-2.00;99.90;;;;;;5096363;28;20475;-79
2024/01/13 09:38:22;;;;;;;1.30;1.27;;;-2.00;99.90;;;;;;5096710;28;20460;-79
2024/01/13 09:40:49;;;;;;;0.70;0.67;;;-2.00;99.90;;;;;;5096528;28;20435;-79
2024/01/13 09:43:22;;;;;;;2.20;1.13;;;-2.00;99.90;;;;;;5096678;28;20452;-79
2024/01/13 09:45:50;;;;;;;0.30;0.30;;;-2.00;99.90;;;;;;5096709;28;20468;-79
2024/01/13 09:48:21;;;;;;;1.27;0.93;;;-2.00;99.90;;;;;;5096113;28;20459;-79
2024/01/13 09:50:51;;;;;;;1.17;0.80;;;-2.00;99.90;;;;;;5096963;28;20925;-79
2024/01/13 09:53:28;;;;;;;1.47;0.83;;;-2.00;99.90;;;;;;5097370;28;20496;-79
2024/01/13 09:55:58;;;;;;;0.97;0.87;;;-2.10;99.90;;;;;;5096824;28;20416;-79
2024/01/13 09:58:26;;;;;;;7.17;1.13;;;-2.00;99.90;;;;;;5096766;28;20814;-79
2024/01/13 10:00:54;;;;;;;1.00;0.50;;;-2.00;99.90;;;;;;5100250;28;20440;-79
2024/01/13 10:03:22;;;;;;;2.10;0.90;;;-2.00;99.90;;;;;;5103177;28;20455;-79
2024/01/13 10:05:52;;;;;;;1.73;0.87;;;-1.90;99.90;;;;;;5102032;28;20478;-79
2024/01/13 10:08:27;;;;;;;1.20;0.50;;;-1.80;99.90;;;;;;5099200;28;20475;-79
2024/01/13 10:10:54;;;;;;;1.70;0.50;;;-1.80;99.90;;;;;;5101143;28;20427;-80
2024/01/13 10:13:21;;;;;;;0.97;0.83;;;-1.70;99.90;;;;;;5101755;28;20451;-80
2024/01/13 10:15:48;;;;;;;1.00;0.77;;;-1.70;99.90;;;;;;5099913;28;20447;-80
2024/01/13 10:18:14;;;;;;;1.03;0.90;;;-1.60;99.90;;;;;;5099569;28;20491;-80
2024/01/13 10:20:42;;;;;;;1.03;1.03;;;-1.50;99.90;;;;;;5098719;28;20422;-79
2024/01/13 10:23:09;;;;;;;1.20;1.17;;;-1.50;99.90;;;;;;5098542;28;20443;-79
2024/01/13 10:25:36;;;;;;;8.67;1.13;;;-1.60;99.90;;;;;;5098249;28;20480;-79
2024/01/13 10:28:03;;;;;;;0.60;0.60;;;-1.60;99.90;;;;;;5098126;28;20468;-80
2024/01/13 10:30:30;;;;;;;0.60;0.60;;;-1.60;99.90;;;;;;5098648;28;20925;-80
2024/01/13 10:32:58;;;;;;;0.57;0.40;;;-1.70;99.90;;;;;;5098755;28;20456;-80
2024/01/13 10:35:27;;;;;;;7.37;1.80;;;-1.60;99.90;;;;;;5098303;28;20467;-80
2024/01/13 10:37:57;;;;;;;0.97;0.70;;;-1.60;99.90;;;;;;5098333;28;20447;-80
2024/01/13 10:40:23;;;;;;;0.77;0.77;;;-1.50;99.90;;;;;;5098981;28;20451;-80
2024/01/13 10:42:55;;;;;;;0.40;0.40;;;-1.40;99.90;;;;;;5098681;28;20447;-80
2024/01/13 10:45:23;;;;;;;3.17;1.90;;;-1.40;99.90;;;;;;5098491;28;20472;-80
2024/01/13 10:47:51;;;;;;;0.60;0.60;;;-1.40;99.90;;;;;;5098364;28;20825;-80
2024/01/13 10:50:19;;;;;;;0.43;0.43;;;-1.40;99.90;;;;;;5098422;28;20444;-79
2024/01/13 10:52:54;;;;;;;4.53;0.93;;;-1.30;99.90;;;;;;5098895;28;20463;-81
2024/01/13 10:55:23;;;;;;;1.07;1.07;;;-1.40;99.90;;;;;;5098348;28;20427;-81
2024/01/13 10:57:50;;;;;;;3.40;1.47;;;-1.50;99.90;;;;;;5097698;28;20493;-82
2024/01/13 11:00:18;;;;;;;0.83;0.83;;;-1.40;99.90;;;;;;5103767;28;20439;-81
2024/01/13 11:02:46;;;;;;;1.07;0.97;;;-1.40;99.90;;;;;;5100515;28;20448;-81
2024/01/13 11:05:16;;;;;;;2.93;0.63;;;-1.40;99.90;;;;;;5096092;28;20432;-81
2024/01/13 11:07:42;;;;;;;0.40;0.40;;;-1.50;99.90;;;;;;5095193;28;20574;-81
2024/01/13 11:10:14;;;;;;;1.33;0.60;;;-1.50;99.90;;;;;;5095246;28;20444;-81
2024/01/13 11:12:48;;;;;;;8.80;2.63;;;-1.50;99.90;;;;;;5094499;28;20435;-81
2024/01/13 11:15:17;;;;;;;0.67;0.67;;;-1.40;99.90;;;;;;5098703;28;20407;-81
2024/01/13 11:17:46;;;;;;;1.83;1.60;;;-1.40;99.90;;;;;;5099389;28;20440;-81
2024/01/13 11:20:13;;;;;;;0.40;0.37;;;-1.40;99.90;;;;;;5099511;28;20444;-81
2024/01/13 11:22:40;;;;;;;2.73;1.03;;;-1.40;99.90;;;;;;5099508;28;20474;-81
2024/01/13 11:25:22;;;;;;;4.83;1.53;;;-1.40;99.90;;;;;;5102413;28;20437;-82
2024/01/13 11:27:54;;;;;;;0.67;0.67;;;-1.40;99.90;;;;;;5108915;28;20428;-81
2024/01/13 11:30:30;;;;;;;0.60;0.60;;;-1.30;99.90;;;;;;5108848;28;20493;-81
2024/01/13 11:32:57;;;;;;;1.90;1.13;;;-1.20;99.90;;;;;;5111235;28;20432;-81
2024/01/13 11:35:23;;;;;;;1.80;0.60;;;-1.20;99.90;;;;;;5102542;28;20451;-81
2024/01/13 11:37:54;;;;;;;7.40;1.17;;;-1.20;99.90;;;;;;5101132;28;20518;-81
2024/01/13 11:40:21;;;;;;;8.70;1.60;;;-1.40;99.90;;;;;;5101806;28;20523;-81
2024/01/13 11:42:48;;;;;;;2.10;1.43;;;-1.40;99.90;;;;;;5100595;28;20451;-81
2024/01/13 11:45:33;;;;;;;0.60;0.60;;;-1.40;99.90;;;;;;5100565;28;20439;-81
2024/01/13 11:48:38;;;;;;;1.27;0.50;;;-1.10;99.90;;;;;;5100092;28;20455;-81
2024/01/13 11:51:08;;;;;;;0.43;0.43;;;-1.40;99.90;;;;;;5099282;28;20438;-81
2024/01/13 11:53:36;;;;;;;1.70;0.77;;;-1.40;99.90;;;;;;5098950;28;20486;-81
2024/01/13 11:56:04;;;;;;;0.77;0.53;;;-1.40;99.90;;;;;;5098893;28;20466;-81
2024/01/13 11:58:31;;;;;;;0.67;0.60;;;-1.40;99.90;;;;;;5099622;28;20456;-81
2024/01/13 12:01:01;;;;;;;0.80;0.70;;;-1.40;99.90;;;;;;5099475;28;20436;-81
2024/01/13 12:03:27;;;;;;;1.47;1.00;;;-1.50;99.90;;;;;;5100063;28;20444;-81
2024/01/13 12:05:54;;;;;;;4.23;3.83;;;-1.50;99.90;;;;;;5100151;28;20478;-81
2024/01/13 12:08:22;;;;;;;1.67;1.57;;;-1.50;99.90;;;;;;5098135;28;20479;-81
2024/01/13 12:10:51;;;;;;;2.30;1.60;;;-1.50;99.90;;;;;;5098590;28;20448;-80
2024/01/13 12:13:19;;;;;;;2.90;1.67;;;-1.50;99.90;;;;;;5098549;28;20495;-80
2024/01/13 12:15:46;;;;;;;2.50;1.93;;;-1.50;99.90;;;;;;5098884;28;20789;-80
2024/01/13 12:18:20;;;;;;;2.80;1.20;;;-1.60;99.90;;;;;;5097596;28;20468;-80
2024/01/13 12:20:48;;;;;;;1.03;0.80;;;-1.50;99.90;;;;;;5097128;28;20909;-81
2024/01/13 12:23:15;;;;;;;4.30;1.07;;;-1.40;99.90;;;;;;5097170;28;20495;-81
2024/01/13 12:25:41;;;;;;;1.03;1.03;;;-1.50;99.90;;;;;;5096158;28;20482;-81
2024/01/13 12:28:08;;;;;;;2.17;2.07;;;-1.50;99.90;;;;;;5096529;28;20448;-81
2024/01/13 12:30:36;;;;;;;1.30;1.20;;;-1.60;99.90;;;;;;5096938;28;20818;-81
2024/01/13 12:33:04;;;;;;;0.60;0.60;;;-1.50;99.90;;;;;;5096854;28;20429;-81
2024/01/13 12:35:32;;;;;;;4.43;1.50;;;-1.50;99.90;;;;;;5096677;28;20440;-80
2024/01/13 12:38:00;;;;;;;3.17;0.50;;;-1.40;99.90;;;;;;5096473;28;20464;-81
2024/01/13 12:40:28;;;;;;;3.23;1.13;;;-1.40;99.90;;;;;;5097007;28;20450;-81
2024/01/13 12:42:55;;;;;;;1.67;1.53;;;-1.30;99.90;;;;;;5098587;28;20793;-82
2024/01/13 12:45:26;;;;;;;1.80;1.70;;;-1.30;99.90;;;;;;5099494;28;20952;-81
2024/01/13 12:47:53;;;;;;;8.70;3.60;;;-1.20;99.90;;;;;;5100218;28;20436;-81